Time;durP1;ratioP1;P1;durP2;ratioP2;P2;SDS_P1;SDS_P2;PMS_P1;PMS_P2;Temp;Humidity;BMP_temperature;BMP_pressure;BME280_temperature;BME280_humidity;BME280_pressure;Samples;Min_cycle;Max_cycle;Signal;HPM_P1;HPM_P2
2023/12/27 00:01:24;;;;;;;56.83;37.47;;;;;;;4.94;100.00;100365.47;4895367;29;20036;-78
2023/12/27 00:03:49;;;;;;;53.08;37.13;;;;;;;4.92;100.00;100356.88;4895716;29;20060;-77
2023/12/27 00:06:14;;;;;;;46.10;32.72;;;;;;;4.85;100.00;100355.53;4895458;29;20128;-78
2023/12/27 00:08:40;;;;;;;48.83;34.95;;;;;;;4.80;100.00;100352.34;4895530;29;20081;-77
2023/12/27 00:11:05;;;;;;;47.35;34.50;;;;;;;4.94;100.00;100347.19;4895255;29;20056;-79
2023/12/27 00:13:31;;;;;;;45.33;33.63;;;;;;;4.98;100.00;100346.06;4895300;29;20517;-77
2023/12/27 00:15:56;;;;;;;44.78;32.67;;;;;;;5.07;100.00;100340.28;4895342;29;20116;-78
2023/12/27 00:18:21;;;;;;;45.85;34.72;;;;;;;4.93;100.00;100350.72;4895644;29;20044;-78
2023/12/27 00:20:47;;;;;;;43.35;32.00;;;;;;;4.79;100.00;100351.50;4895633;29;20138;-78
2023/12/27 00:23:14;;;;;;;47.85;34.38;;;;;;;4.79;100.00;100361.09;4895263;29;20493;-79
2023/12/27 00:25:39;;;;;;;52.28;35.13;;;;;;;4.80;100.00;100368.88;4894685;29;20080;-77
2023/12/27 00:28:05;;;;;;;44.55;33.35;;;;;;;4.87;100.00;100387.69;4895155;29;20098;-77
2023/12/27 00:30:31;;;;;;;49.17;34.47;;;;;;;4.87;100.00;100391.13;4895722;29;20065;-78
2023/12/27 00:32:57;;;;;;;45.53;34.28;;;;;;;4.85;100.00;100381.69;4895095;29;20511;-77
2023/12/27 00:35:23;;;;;;;46.70;33.88;;;;;;;4.84;100.00;100385.22;4895827;29;20044;-77
2023/12/27 00:37:48;;;;;;;49.45;34.20;;;;;;;4.87;100.00;100383.28;4893985;29;20029;-78
2023/12/27 00:40:14;;;;;;;44.22;33.75;;;;;;;5.00;100.00;100380.81;4905273;29;20047;-78
2023/12/27 00:42:40;;;;;;;43.33;33.30;;;;;;;5.09;100.00;100371.59;4895118;29;20491;-78
2023/12/27 00:45:06;;;;;;;45.58;32.38;;;;;;;5.16;100.00;100365.94;4892228;29;20033;-78
2023/12/27 00:47:31;;;;;;;47.95;33.72;;;;;;;5.21;100.00;100363.88;4894658;29;20100;-77
2023/12/27 00:49:57;;;;;;;44.35;32.97;;;;;;;5.26;100.00;100367.06;4893323;29;20036;-78
2023/12/27 00:52:22;;;;;;;45.50;33.15;;;;;;;5.35;100.00;100370.94;4894844;29;20028;-78
2023/12/27 00:54:48;;;;;;;47.05;32.50;;;;;;;5.38;100.00;100375.13;4891119;29;20037;-77
2023/12/27 00:57:13;;;;;;;41.78;32.10;;;;;;;5.43;100.00;100367.84;4894416;29;20028;-77
2023/12/27 00:59:39;;;;;;;44.17;32.47;;;;;;;5.46;100.00;100379.00;4905473;29;20499;-78
2023/12/27 01:02:06;;;;;;;42.55;32.17;;;;;;;5.47;100.00;100385.06;4893387;29;20040;-77
2023/12/27 01:04:32;;;;;;;41.63;31.88;;;;;;;5.41;100.00;100385.44;4894761;29;20049;-78
2023/12/27 01:06:58;;;;;;;42.28;32.20;;;;;;;5.34;100.00;100384.94;4902638;29;20394;-78
2023/12/27 01:09:23;;;;;;;41.63;32.03;;;;;;;5.31;100.00;100380.72;4894974;29;20040;-77
2023/12/27 01:11:49;;;;;;;42.75;30.60;;;;;;;5.21;100.00;100379.59;4893645;29;20076;-77
2023/12/27 01:14:16;;;;;;;37.75;29.25;;;;;;;5.29;100.00;100387.84;4893467;29;20044;-77
2023/12/27 01:16:42;;;;;;;40.15;30.25;;;;;;;5.35;100.00;100392.72;4893085;29;20039;-77
2023/12/27 01:19:10;;;;;;;41.25;31.50;;;;;;;5.33;100.00;100389.34;4894305;29;20032;-77
2023/12/27 01:21:35;;;;;;;35.92;29.23;;;;;;;5.30;100.00;100389.50;4895202;29;20569;-77
2023/12/27 01:24:01;;;;;;;35.35;29.05;;;;;;;5.25;100.00;100390.69;4893999;29;20052;-78
2023/12/27 01:26:26;;;;;;;36.80;28.42;;;;;;;5.15;100.00;100390.41;4893853;29;20112;-77
2023/12/27 01:28:52;;;;;;;39.53;28.65;;;;;;;5.03;100.00;100391.09;4894730;29;20030;-77
2023/12/27 01:31:18;;;;;;;36.45;27.42;;;;;;;4.82;100.00;100393.16;4890303;29;20356;-78
2023/12/27 01:33:44;;;;;;;38.00;29.42;;;;;;;4.86;100.00;100393.81;4894251;29;20035;-77
2023/12/27 01:36:09;;;;;;;33.22;28.40;;;;;;;4.94;100.00;100397.72;4893726;29;20032;-78
2023/12/27 01:38:35;;;;;;;36.30;30.13;;;;;;;4.77;100.00;100399.59;4894271;29;20100;-78
2023/12/27 01:41:02;;;;;;;36.42;29.42;;;;;;;4.91;100.00;100402.25;4891691;29;20063;-77
2023/12/27 01:43:28;;;;;;;40.05;29.02;;;;;;;4.95;100.00;100403.75;4894063;29;20363;-78
2023/12/27 01:45:53;;;;;;;37.33;29.65;;;;;;;4.83;100.00;100420.16;4904490;29;20120;-78
2023/12/27 01:48:20;;;;;;;39.80;31.30;;;;;;;4.83;100.00;100409.72;4893996;29;20037;-77
2023/12/27 01:50:47;;;;;;;32.63;28.40;;;;;;;4.87;100.00;100411.22;4894106;29;20096;-77
2023/12/27 01:53:13;;;;;;;39.28;28.95;;;;;;;4.85;100.00;100405.22;4892716;29;20040;-78
2023/12/27 01:55:38;;;;;;;41.67;30.98;;;;;;;4.86;100.00;100417.38;4893863;29;20032;-78
2023/12/27 01:58:10;;;;;;;40.22;29.55;;;;;;;4.80;100.00;100400.25;4889841;29;20042;-78
2023/12/27 02:00:40;;;;;;;36.55;29.20;;;;;;;4.90;100.00;100405.78;4889569;29;20127;-78
2023/12/27 02:03:06;;;;;;;36.28;29.10;;;;;;;4.92;100.00;100417.03;4891206;29;20191;-78
2023/12/27 02:05:32;;;;;;;41.45;30.10;;;;;;;4.83;100.00;100422.78;4893520;29;20540;-78
2023/12/27 02:07:59;;;;;;;35.88;29.35;;;;;;;4.91;100.00;100420.56;4890038;29;20116;-76
2023/12/27 02:10:25;;;;;;;34.05;28.13;;;;;;;5.00;100.00;100425.28;4892409;29;20045;-78
2023/12/27 02:12:50;;;;;;;33.50;27.52;;;;;;;4.87;100.00;100430.38;4905177;29;20142;-77
2023/12/27 02:15:16;;;;;;;35.13;27.73;;;;;;;4.83;100.00;100430.63;4892605;29;20542;-77
2023/12/27 02:17:43;;;;;;;33.03;27.70;;;;;;;4.78;100.00;100433.47;4892455;29;20043;-77
2023/12/27 02:20:09;;;;;;;31.98;25.50;;;;;;;4.61;100.00;100436.16;4902982;29;20032;-78
2023/12/27 02:22:37;;;;;;;34.85;27.98;;;;;;;4.72;100.00;100435.56;4894009;29;20036;-78
2023/12/27 02:25:03;;;;;;;36.55;28.63;;;;;;;4.72;100.00;100433.81;4911584;29;20056;-78
2023/12/27 02:27:29;;;;;;;32.08;27.40;;;;;;;4.82;100.00;100437.63;4902564;29;20029;-78
2023/12/27 02:29:54;;;;;;;35.50;28.30;;;;;;;4.92;100.00;100432.72;4899857;29;20045;-76
2023/12/27 02:32:20;;;;;;;34.00;27.55;;;;;;;4.90;100.00;100438.03;4907123;29;20040;-78
2023/12/27 02:34:45;;;;;;;33.17;28.23;;;;;;;4.85;100.00;100439.22;4899723;29;20128;-78
2023/12/27 02:37:12;;;;;;;31.88;26.92;;;;;;;4.87;100.00;100442.59;4898072;29;20048;-77
2023/12/27 02:39:37;;;;;;;33.00;27.35;;;;;;;4.88;100.00;100439.06;4898406;29;20028;-77
2023/12/27 02:42:04;;;;;;;32.45;27.10;;;;;;;5.02;100.00;100441.72;4899516;29;20040;-77
2023/12/27 02:44:29;;;;;;;30.95;26.13;;;;;;;5.06;100.00;100438.03;4898378;29;20039;-77
2023/12/27 02:46:55;;;;;;;28.55;25.25;;;;;;;5.03;100.00;100432.94;4899312;29;20029;-77
2023/12/27 02:49:21;;;;;;;33.78;27.02;;;;;;;5.09;100.00;100437.84;4895109;29;20537;-78
2023/12/27 02:51:47;;;;;;;32.53;26.35;;;;;;;5.13;100.00;100447.19;4899512;29;20093;-78
2023/12/27 02:54:12;;;;;;;31.30;26.55;;;;;;;5.03;100.00;100442.56;4899344;29;21381;-78
2023/12/27 02:56:39;;;;;;;32.83;27.13;;;;;;;4.90;100.00;100453.72;4899670;29;20040;-78
2023/12/27 02:59:04;;;;;;;33.75;27.80;;;;;;;4.85;100.00;100450.50;4897782;29;20032;-77
2023/12/27 03:01:30;;;;;;;34.17;27.80;;;;;;;4.93;100.00;100457.94;4898295;29;20036;-77
2023/12/27 03:03:55;;;;;;;35.17;27.35;;;;;;;5.01;100.00;100447.88;4895035;29;20136;-77
2023/12/27 03:06:22;;;;;;;33.83;27.95;;;;;;;5.09;100.00;100445.69;4898313;29;20104;-78
2023/12/27 03:08:51;;;;;;;32.50;26.90;;;;;;;5.09;100.00;100430.00;4900375;29;20526;-76
2023/12/27 03:11:17;;;;;;;33.13;26.57;;;;;;;5.09;100.00;100427.38;4899932;29;20045;-77
2023/12/27 03:13:43;;;;;;;33.80;27.17;;;;;;;5.06;100.00;100427.56;4898642;29;20295;-78
2023/12/27 03:16:09;;;;;;;35.58;27.33;;;;;;;5.13;100.00;100431.50;4898709;29;20037;-78
2023/12/27 03:18:35;;;;;;;34.78;27.48;;;;;;;5.17;100.00;100435.66;4899832;29;20039;-77
2023/12/27 03:21:01;;;;;;;33.38;26.45;;;;;;;5.22;100.00;100431.00;4899644;29;20033;-77
2023/12/27 03:23:26;;;;;;;33.05;25.92;;;;;;;5.24;100.00;100426.50;4895406;29;20448;-76
2023/12/27 03:25:53;;;;;;;33.72;25.88;;;;;;;5.22;100.00;100433.59;4899431;29;20084;-78
2023/12/27 03:28:18;;;;;;;30.27;25.10;;;;;;;5.14;100.00;100434.97;4898126;29;20071;-77
2023/12/27 03:30:44;;;;;;;32.00;25.73;;;;;;;5.13;100.00;100439.34;4897808;29;20087;-77
2023/12/27 03:33:10;;;;;;;30.85;25.88;;;;;;;5.21;100.00;100431.06;4912962;29;20085;-77
2023/12/27 03:35:37;;;;;;;28.75;25.10;;;;;;;5.25;100.00;100438.66;4898496;29;20458;-77
2023/12/27 03:38:02;;;;;;;30.50;24.80;;;;;;;5.24;100.00;100436.94;4916196;29;20039;-78
2023/12/27 03:40:28;;;;;;;30.33;24.23;;;;;;;5.32;100.00;100429.53;4913917;29;20139;-76
2023/12/27 03:42:53;;;;;;;29.48;24.95;;;;;;;5.28;100.00;100435.03;4911009;29;20036;-76
2023/12/27 03:45:20;;;;;;;29.30;25.30;;;;;;;5.36;100.00;100438.88;4914557;29;20043;-77
2023/12/27 03:47:45;;;;;;;29.98;25.10;;;;;;;5.42;100.00;100445.53;4929045;29;20024;-77
2023/12/27 03:50:14;;;;;;;31.70;25.95;;;;;;;5.35;100.00;100444.22;4914827;29;20067;-77
2023/12/27 03:52:42;;;;;;;32.50;25.42;;;;;;;5.35;100.00;100439.81;4900842;29;20072;-78
2023/12/27 03:55:08;;;;;;;29.15;25.17;;;;;;;5.38;100.00;100445.78;4894506;29;20418;-78
2023/12/27 03:57:33;;;;;;;32.33;25.92;;;;;;;5.41;100.00;100456.09;4894430;29;20059;-77
2023/12/27 03:59:59;;;;;;;33.40;26.10;;;;;;;5.37;100.00;100458.03;4894460;29;20323;-77
2023/12/27 04:02:24;;;;;;;31.77;26.08;;;;;;;5.35;100.00;100459.91;4895483;29;20386;-77
2023/12/27 04:04:49;;;;;;;32.65;28.02;;;;;;;5.32;100.00;100455.69;4896017;29;20100;-77
2023/12/27 04:07:15;;;;;;;33.40;27.08;;;;;;;5.26;100.00;100450.81;4910207;29;20029;-77
2023/12/27 04:09:40;;;;;;;34.47;27.30;;;;;;;5.23;100.00;100445.75;4909361;29;20087;-77
2023/12/27 04:12:07;;;;;;;34.17;27.33;;;;;;;5.25;100.00;100459.59;4906091;29;20032;-77
2023/12/27 04:14:32;;;;;;;34.10;26.73;;;;;;;5.17;100.00;100456.56;4896126;29;20024;-77
2023/12/27 04:16:58;;;;;;;33.13;26.58;;;;;;;5.23;100.00;100453.63;4895556;29;20040;-76
2023/12/27 04:19:23;;;;;;;30.20;26.10;;;;;;;5.28;100.00;100448.09;4895830;29;20115;-79
2023/12/27 04:21:49;;;;;;;34.85;26.90;;;;;;;5.21;100.00;100452.84;4896491;29;20457;-77
2023/12/27 04:24:14;;;;;;;34.03;26.85;;;;;;;5.19;100.00;100459.09;4895369;29;20465;-77
2023/12/27 04:26:40;;;;;;;32.13;26.27;;;;;;;5.18;100.00;100453.03;4909979;29;20040;-77
2023/12/27 04:29:08;;;;;;;30.85;25.63;;;;;;;5.23;100.00;100466.69;4893935;29;20040;-78
2023/12/27 04:31:33;;;;;;;30.45;25.48;;;;;;;5.29;100.00;100471.59;4895241;29;20035;-78
2023/12/27 04:33:59;;;;;;;31.38;24.83;;;;;;;5.29;100.00;100466.34;4907049;29;20037;-77
2023/12/27 04:36:25;;;;;;;30.75;25.25;;;;;;;5.31;100.00;100467.09;4909669;29;20402;-78
2023/12/27 04:38:50;;;;;;;32.55;25.45;;;;;;;5.36;100.00;100467.66;4896176;29;20024;-76
2023/12/27 04:41:17;;;;;;;31.73;25.90;;;;;;;5.39;100.00;100481.50;4895274;29;20036;-77
2023/12/27 04:43:43;;;;;;;29.67;24.48;;;;;;;5.34;100.00;100473.94;4895672;29;20465;-77
2023/12/27 04:46:08;;;;;;;32.10;25.83;;;;;;;5.31;100.00;100468.84;4895156;29;20112;-76
2023/12/27 04:48:34;;;;;;;31.25;25.48;;;;;;;5.41;100.00;100469.19;4892044;29;20081;-77
2023/12/27 04:50:59;;;;;;;34.53;26.05;;;;;;;5.44;100.00;100476.84;4898768;29;20099;-77
2023/12/27 04:53:25;;;;;;;33.58;27.15;;;;;;;5.40;100.00;100483.22;4895211;29;20033;-78
2023/12/27 04:55:50;;;;;;;32.97;26.15;;;;;;;5.34;100.00;100485.25;4893578;29;20033;-78
2023/12/27 04:58:16;;;;;;;32.38;26.15;;;;;;;5.36;100.00;100488.59;4894732;29;20043;-78
2023/12/27 05:00:41;;;;;;;31.45;25.95;;;;;;;5.43;100.00;100488.25;4894943;29;20032;-78
2023/12/27 05:03:07;;;;;;;32.72;26.90;;;;;;;5.41;100.00;100485.75;4894032;29;20029;-78
2023/12/27 05:05:33;;;;;;;32.08;26.25;;;;;;;5.45;100.00;100491.63;4877819;29;20120;-77
2023/12/27 05:07:58;;;;;;;34.45;27.25;;;;;;;5.46;100.00;100488.09;4894398;29;20119;-77
2023/12/27 05:10:24;;;;;;;34.85;26.90;;;;;;;5.49;100.00;100501.00;4908962;29;20044;-78
2023/12/27 05:12:49;;;;;;;30.17;25.83;;;;;;;5.52;100.00;100504.28;4905739;29;20595;-77
2023/12/27 05:15:15;;;;;;;31.13;26.15;;;;;;;5.56;100.00;100503.19;4894080;29;20428;-77
2023/12/27 05:17:40;;;;;;;36.72;27.85;;;;;;;5.59;100.00;100510.03;4894233;29;20033;-77
2023/12/27 05:20:06;;;;;;;37.65;26.40;;;;;;;5.59;100.00;100513.50;4893990;29;20037;-76
2023/12/27 05:22:34;;;;;;;33.42;26.30;;;;;;;5.62;100.00;100509.84;4894427;29;20477;-77
2023/12/27 05:25:02;;;;;;;33.55;26.75;;;;;;;5.63;100.00;100516.75;4892627;29;20108;-77
2023/12/27 05:27:28;;;;;;;36.30;26.95;;;;;;;5.70;100.00;100515.50;4894324;29;20393;-77
2023/12/27 05:29:54;;;;;;;33.92;26.98;;;;;;;5.71;100.00;100520.63;4893916;29;20040;-78
2023/12/27 05:32:20;;;;;;;32.67;26.83;;;;;;;5.66;100.00;100517.41;4893927;29;20036;-76
2023/12/27 05:34:47;;;;;;;34.58;27.95;;;;;;;5.61;100.00;100518.63;4894126;29;20123;-77
2023/12/27 05:37:14;;;;;;;33.65;26.20;;;;;;;5.56;100.00;100526.75;4894028;29;20123;-79
2023/12/27 05:39:39;;;;;;;34.08;28.23;;;;;;;5.56;100.00;100525.91;4908787;29;20028;-78
2023/12/27 05:42:05;;;;;;;32.50;27.60;;;;;;;5.60;100.00;100535.25;4893744;29;20131;-77
2023/12/27 05:44:31;;;;;;;36.45;29.13;;;;;;;5.59;100.00;100528.34;4894171;29;20033;-77
2023/12/27 05:46:57;;;;;;;40.03;30.77;;;;;;;5.58;100.00;100539.75;4893718;29;20041;-78
2023/12/27 05:49:22;;;;;;;47.47;33.38;;;;;;;5.52;100.00;100534.88;4893706;29;20024;-78
2023/12/27 05:51:47;;;;;;;47.20;33.33;;;;;;;5.51;100.00;100541.03;4894086;29;20072;-78
2023/12/27 05:54:13;;;;;;;44.88;31.10;;;;;;;5.53;100.00;100547.03;4893923;29;20697;-78
2023/12/27 05:56:39;;;;;;;43.85;31.52;;;;;;;5.51;100.00;100551.50;4894176;29;20063;-78
2023/12/27 05:59:06;;;;;;;41.15;31.10;;;;;;;5.55;100.00;100545.16;4893028;29;20036;-78
2023/12/27 06:01:32;;;;;;;44.22;30.63;;;;;;;5.55;100.00;100553.00;4891978;29;20046;-77
2023/12/27 06:03:57;;;;;;;49.08;31.90;;;;;;;5.57;100.00;100553.78;4893291;29;20107;-76
2023/12/27 06:06:22;;;;;;;45.25;31.27;;;;;;;5.59;100.00;100557.16;4893869;29;20041;-78
2023/12/27 06:08:48;;;;;;;48.47;32.67;;;;;;;5.60;100.00;100564.91;4893670;29;20124;-78
2023/12/27 06:11:13;;;;;;;39.92;30.35;;;;;;;5.61;100.00;100556.13;4893599;29;20104;-78
2023/12/27 06:13:40;;;;;;;44.90;31.27;;;;;;;5.60;100.00;100558.81;4893974;29;20029;-79
2023/12/27 06:16:05;;;;;;;38.35;29.27;;;;;;;5.57;100.00;100564.25;4893593;29;20033;-78
2023/12/27 06:18:31;;;;;;;44.40;29.45;;;;;;;5.53;100.00;100563.59;4893301;29;20096;-78
2023/12/27 06:20:56;;;;;;;41.15;29.83;;;;;;;5.56;100.00;100567.78;4893385;29;20473;-78
2023/12/27 06:23:22;;;;;;;40.60;30.05;;;;;;;5.50;100.00;100565.50;4893542;29;20040;-78
2023/12/27 06:25:47;;;;;;;43.47;31.65;;;;;;;5.49;100.00;100571.66;4893734;29;20025;-78
2023/12/27 06:28:13;;;;;;;42.40;29.17;;;;;;;5.48;100.00;100575.25;4893396;29;20037;-77
2023/12/27 06:30:38;;;;;;;40.97;31.33;;;;;;;5.45;100.00;100575.41;4893465;29;20383;-77
2023/12/27 06:33:04;;;;;;;39.13;30.05;;;;;;;5.41;100.00;100573.91;4893118;29;20136;-78
2023/12/27 06:35:29;;;;;;;44.45;30.48;;;;;;;5.43;100.00;100574.63;4893672;29;20460;-78
2023/12/27 06:37:54;;;;;;;44.50;30.33;;;;;;;5.47;100.00;100573.56;4893686;29;20412;-78
2023/12/27 06:40:20;;;;;;;40.88;30.73;;;;;;;5.53;100.00;100578.44;4893584;29;20505;-78
2023/12/27 06:42:45;;;;;;;41.22;28.77;;;;;;;5.57;100.00;100582.56;4893459;29;20127;-78
2023/12/27 06:45:11;;;;;;;37.55;28.35;;;;;;;5.57;100.00;100579.94;4893210;29;20041;-77
2023/12/27 06:47:36;;;;;;;35.95;26.88;;;;;;;5.56;100.00;100580.88;4895104;29;20071;-77
2023/12/27 06:50:03;;;;;;;36.53;27.73;;;;;;;5.56;100.00;100578.25;4892997;29;20052;-78
2023/12/27 06:52:29;;;;;;;34.28;26.85;;;;;;;5.58;100.00;100584.25;4893151;29;20025;-78
2023/12/27 06:54:55;;;;;;;33.10;25.48;;;;;;;5.63;100.00;100590.09;4893185;29;20036;-78
2023/12/27 06:57:20;;;;;;;31.13;25.52;;;;;;;5.67;100.00;100596.81;4893656;29;20035;-78
2023/12/27 06:59:46;;;;;;;36.30;25.83;;;;;;;5.63;100.00;100592.69;4893456;29;20057;-77
2023/12/27 07:02:12;;;;;;;29.92;25.38;;;;;;;5.51;100.00;100593.38;4892528;29;20075;-77
2023/12/27 07:04:37;;;;;;;31.23;24.75;;;;;;;5.59;100.00;100593.81;4893217;29;20182;-79
2023/12/27 07:07:04;;;;;;;30.38;25.05;;;;;;;5.65;100.00;100598.72;4892969;29;20183;-78
2023/12/27 07:09:29;;;;;;;30.25;24.55;;;;;;;5.59;100.00;100599.06;4893405;29;20135;-77
2023/12/27 07:11:55;;;;;;;32.22;24.42;;;;;;;5.66;100.00;100606.44;4894832;29;20038;-78
2023/12/27 07:14:20;;;;;;;32.20;24.90;;;;;;;5.73;100.00;100612.19;4896900;29;20028;-78
2023/12/27 07:16:46;;;;;;;30.45;25.23;;;;;;;5.72;100.00;100613.97;4896616;29;20506;-78
2023/12/27 07:19:11;;;;;;;29.38;25.10;;;;;;;5.70;100.00;100617.63;4896354;29;20145;-78
2023/12/27 07:21:37;;;;;;;27.40;22.77;;;;;;;5.54;100.00;100628.09;4897011;29;20037;-79
2023/12/27 07:24:03;;;;;;;31.83;25.00;;;;;;;5.45;100.00;100630.38;4909176;29;20041;-77
2023/12/27 07:26:28;;;;;;;28.92;23.70;;;;;;;5.55;100.00;100628.94;4896614;29;20104;-79
2023/12/27 07:28:53;;;;;;;30.35;23.40;;;;;;;5.47;100.00;100641.63;4896688;29;20083;-77
2023/12/27 07:31:19;;;;;;;31.50;23.55;;;;;;;5.56;100.00;100643.72;4893252;29;20119;-77
2023/12/27 07:33:45;;;;;;;29.08;23.48;;;;;;;5.47;100.00;100644.22;4896411;29;20532;-80
2023/12/27 07:36:10;;;;;;;35.15;26.45;;;;;;;5.49;100.00;100650.22;4896016;29;20041;-78
2023/12/27 07:38:36;;;;;;;31.27;24.17;;;;;;;5.52;100.00;100639.59;4896968;29;20036;-78
2023/12/27 07:41:01;;;;;;;31.00;24.88;;;;;;;5.55;100.00;100649.88;4895981;29;20124;-78
2023/12/27 07:43:26;;;;;;;28.27;23.63;;;;;;;5.54;100.00;100646.41;4896702;29;20032;-77
2023/12/27 07:45:52;;;;;;;31.17;24.15;;;;;;;5.58;100.00;100661.03;4896484;29;20501;-78
2023/12/27 07:48:18;;;;;;;31.45;24.33;;;;;;;5.63;100.00;100658.16;4895921;29;20338;-78
2023/12/27 07:50:43;;;;;;;30.58;24.00;;;;;;;5.63;100.00;100668.63;4896433;29;20036;-78
2023/12/27 07:53:09;;;;;;;31.73;23.60;;;;;;;5.67;100.00;100680.63;4896701;29;20031;-77
2023/12/27 07:55:34;;;;;;;29.75;23.83;;;;;;;5.70;100.00;100670.84;4895843;29;20056;-78
2023/12/27 07:58:00;;;;;;;30.67;23.90;;;;;;;5.77;100.00;100681.81;4895582;29;20390;-78
2023/12/27 08:00:26;;;;;;;30.33;24.63;;;;;;;5.76;100.00;100669.66;4895784;29;20048;-78
2023/12/27 08:02:53;;;;;;;31.60;23.98;;;;;;;5.83;100.00;100683.25;4895525;29;20396;-78
2023/12/27 08:05:18;;;;;;;32.13;24.55;;;;;;;5.85;100.00;100684.84;4895685;29;20115;-78
2023/12/27 08:07:45;;;;;;;31.52;23.00;;;;;;;5.76;100.00;100690.59;4896145;29;20139;-77
2023/12/27 08:10:10;;;;;;;26.67;23.50;;;;;;;5.83;100.00;100691.97;4895349;29;20039;-78
2023/12/27 08:12:35;;;;;;;31.45;23.42;;;;;;;5.84;100.00;100692.78;4895921;29;20028;-78
2023/12/27 08:15:01;;;;;;;29.00;24.48;;;;;;;5.80;100.00;100692.13;4895523;29;20406;-76
2023/12/27 08:17:26;;;;;;;31.45;23.38;;;;;;;5.83;100.00;100702.44;4895544;29;20456;-78
2023/12/27 08:19:53;;;;;;;31.63;24.27;;;;;;;5.84;100.00;100704.09;4895861;29;20071;-78
2023/12/27 08:22:20;;;;;;;33.05;24.15;;;;;;;5.89;100.00;100706.53;4891363;29;20120;-77
2023/12/27 08:24:45;;;;;;;31.90;23.77;;;;;;;5.95;100.00;100707.00;4895711;29;20481;-78
2023/12/27 08:27:11;;;;;;;39.72;25.60;;;;;;;6.01;100.00;100711.91;4895085;29;20037;-79
2023/12/27 08:29:36;;;;;;;31.63;24.48;;;;;;;6.02;100.00;100718.84;4895026;29;20055;-78
2023/12/27 08:32:01;;;;;;;34.53;23.92;;;;;;;5.97;100.00;100720.88;4895205;29;20195;-78
2023/12/27 08:34:27;;;;;;;35.72;24.42;;;;;;;5.99;100.00;100718.19;4895498;29;20441;-78
2023/12/27 08:36:54;;;;;;;32.22;22.85;;;;;;;6.05;100.00;100723.06;4895653;29;20466;-78
2023/12/27 08:39:20;;;;;;;30.98;22.80;;;;;;;6.04;100.00;100731.88;4891976;29;20514;-78
2023/12/27 08:41:45;;;;;;;31.63;23.25;;;;;;;6.09;100.00;100730.66;4894891;29;20064;-77
2023/12/27 08:44:12;;;;;;;30.30;22.45;;;;;;;6.15;100.00;100738.19;4894912;29;20147;-78
2023/12/27 08:46:39;;;;;;;26.85;21.58;;;;;;;6.10;100.00;100742.84;4895557;29;20051;-77
2023/12/27 08:49:04;;;;;;;26.02;21.90;;;;;;;6.23;100.00;100742.16;4894744;29;20037;-79
2023/12/27 08:51:30;;;;;;;31.30;22.52;;;;;;;6.29;100.00;100736.56;4895194;29;20088;-78
2023/12/27 08:53:55;;;;;;;30.75;22.30;;;;;;;6.32;100.00;100741.63;4895212;29;20031;-77
2023/12/27 08:56:20;;;;;;;29.02;21.88;;;;;;;6.37;100.00;100744.84;4895230;29;20037;-78
2023/12/27 08:58:46;;;;;;;27.65;20.40;;;;;;;6.37;100.00;100744.84;4895509;29;20510;-80
2023/12/27 09:01:11;;;;;;;29.55;21.17;;;;;;;6.21;100.00;100744.88;4894728;29;20051;-78
2023/12/27 09:03:39;;;;;;;28.48;20.73;;;;;;;6.33;100.00;100751.19;4894837;29;20033;-78
2023/12/27 09:06:04;;;;;;;28.27;20.25;;;;;;;6.26;100.00;100752.47;4894527;29;20029;-79
2023/12/27 09:08:30;;;;;;;26.15;20.60;;;;;;;6.39;100.00;100748.22;4895049;29;20029;-78
2023/12/27 09:10:55;;;;;;;30.92;20.77;;;;;;;6.37;100.00;100750.06;4894465;29;20043;-79
2023/12/27 09:13:21;;;;;;;30.90;20.63;;;;;;;6.38;100.00;100757.00;4894740;29;20111;-78
2023/12/27 09:15:46;;;;;;;29.27;20.77;;;;;;;6.43;100.00;100762.84;4894728;29;20068;-77
2023/12/27 09:18:13;;;;;;;29.95;20.35;;;;;;;6.45;100.00;100763.59;4893826;29;20059;-78
2023/12/27 09:20:38;;;;;;;29.02;21.15;;;;;;;6.33;100.00;100769.53;4894587;29;20430;-77
2023/12/27 09:23:03;;;;;;;30.58;20.67;;;;;;;6.47;100.00;100767.84;4892695;29;20246;-78
2023/12/27 09:25:29;;;;;;;29.20;20.17;;;;;;;6.55;100.00;100775.25;4894485;29;20033;-77
2023/12/27 09:27:55;;;;;;;27.67;21.00;;;;;;;6.52;100.00;100776.28;4894537;29;20044;-78
2023/12/27 09:30:20;;;;;;;26.95;20.65;;;;;;;6.62;100.00;100768.72;4894127;29;20085;-78
2023/12/27 09:32:46;;;;;;;24.00;19.10;;;;;;;6.63;100.00;100773.03;4893980;29;20414;-78
2023/12/27 09:35:11;;;;;;;24.98;20.30;;;;;;;6.70;100.00;100774.38;4893263;29;20056;-78
2023/12/27 09:37:37;;;;;;;28.83;20.58;;;;;;;6.77;100.00;100770.50;4893978;29;20041;-76
2023/12/27 09:40:03;;;;;;;26.80;20.33;;;;;;;6.78;100.00;100761.66;4894007;29;20474;-78
2023/12/27 09:42:32;;;;;;;29.27;20.80;;;;;;;6.77;100.00;100775.72;4894084;29;20490;-78
2023/12/27 09:45:00;;;;;;;26.67;21.17;;;;;;;6.81;100.00;100774.63;4894056;29;20035;-78
2023/12/27 09:47:28;;;;;;;27.85;21.30;;;;;;;6.84;100.00;100787.53;4893748;29;20153;-78
2023/12/27 09:49:56;;;;;;;26.05;20.63;;;;;;;6.92;100.00;100773.97;4905364;29;20040;-78
2023/12/27 09:52:23;;;;;;;31.48;20.52;;;;;;;6.92;100.00;100780.06;4900455;29;20035;-77
2023/12/27 09:54:49;;;;;;;30.83;21.67;;;;;;;7.03;100.00;100781.22;4894140;29;20036;-78
2023/12/27 09:57:15;;;;;;;26.05;20.35;;;;;;;7.12;100.00;100778.06;4893660;29;20124;-78
2023/12/27 09:59:45;;;;;;;29.92;21.52;;;;;;;7.18;100.00;100785.56;4894192;29;20024;-78
2023/12/27 10:02:17;;;;;;;31.13;21.58;;;;;;;7.24;100.00;100780.81;4893347;29;20040;-78
2023/12/27 10:05:02;;;;;;;32.20;21.00;;;;;;;7.19;100.00;100780.22;4894021;29;20036;-77
2023/12/27 10:07:30;;;;;;;32.85;21.27;;;;;;;7.11;100.00;100792.13;4891257;29;20073;-78
2023/12/27 10:09:55;;;;;;;31.10;20.95;;;;;;;7.13;100.00;100790.25;4893682;29;20139;-77
2023/12/27 10:12:21;;;;;;;26.02;21.42;;;;;;;7.11;100.00;100784.25;4893578;29;20056;-77
2023/12/27 10:14:48;;;;;;;26.73;20.35;;;;;;;7.27;100.00;100785.00;4893853;29;20442;-78
2023/12/27 10:17:14;;;;;;;30.65;22.38;;;;;;;7.33;100.00;100785.50;4893416;29;20039;-78
2023/12/27 10:19:41;;;;;;;31.10;22.38;;;;;;;7.42;100.00;100778.84;4892789;29;20346;-76
2023/12/27 10:22:07;;;;;;;27.83;21.55;;;;;;;7.48;100.00;100786.31;4892982;29;20072;-75
2023/12/27 10:24:34;;;;;;;32.67;22.67;;;;;;;7.49;100.00;100788.03;4893795;29;20056;-75
2023/12/27 10:27:01;;;;;;;28.60;21.40;;;;;;;7.42;100.00;100784.09;4893517;29;20033;-75
2023/12/27 10:29:27;;;;;;;29.15;21.73;;;;;;;7.40;100.00;100780.72;4890836;29;20048;-76
2023/12/27 10:31:52;;;;;;;25.38;20.95;;;;;;;7.39;100.00;100779.03;4893483;29;20033;-76
2023/12/27 10:34:20;;;;;;;31.90;21.02;;;;;;;7.39;100.00;100781.66;4893213;29;20052;-73
2023/12/27 10:36:46;;;;;;;28.02;22.63;;;;;;;7.43;100.00;100784.91;4892904;29;20036;-76
2023/12/27 10:39:11;;;;;;;28.85;22.52;;;;;;;7.46;100.00;100779.50;4892813;29;20131;-74
2023/12/27 10:41:40;;;;;;;27.05;21.70;;;;;;;7.55;100.00;100778.91;4892657;29;20370;-74
2023/12/27 10:44:05;;;;;;;31.50;22.02;;;;;;;7.63;100.00;100781.94;4893801;29;20469;-75
2023/12/27 10:46:34;;;;;;;29.55;22.60;;;;;;;7.70;100.00;100783.25;4896020;29;20036;-77
2023/12/27 10:49:04;;;;;;;29.73;21.65;;;;;;;7.55;100.00;100766.63;4896801;29;20032;-75
2023/12/27 10:51:30;;;;;;;32.53;23.05;;;;;;;7.59;100.00;100770.78;4908211;29;20048;-75
2023/12/27 10:54:03;;;;;;;32.92;24.17;;;;;;;7.58;100.00;100766.47;4894516;29;20063;-75
2023/12/27 10:56:40;;;;;;;29.27;23.33;;;;;;;7.49;100.00;100761.75;4898118;29;20157;-76
2023/12/27 10:59:07;;;;;;;35.40;23.73;;;;;;;7.60;100.00;100759.31;4896847;29;20127;-75
2023/12/27 11:01:34;;;;;;;30.98;22.83;;;;;;;7.75;100.00;100747.88;4898677;29;20036;-74
2023/12/27 11:04:00;;;;;;;28.55;22.45;;;;;;;7.86;100.00;100754.22;4897925;29;20028;-75